sensor_id;sensor_type;location;lat;lon;timestamp;temperature;humidity
2897;DHT22;1458;49.728;9.228;2022-08-19T00:01:21;19.00;99.90
2897;DHT22;1458;49.728;9.228;2022-08-19T00:03:49;18.90;99.90
2897;DHT22;1458;49.728;9.228;2022-08-19T00:06:17;18.80;99.90
2897;DHT22;1458;49.728;9.228;2022-08-19T00:08:45;18.80;99.90
2897;DHT22;1458;49.728;9.228;2022-08-19T00:11:13;18.70;99.90
2897;DHT22;1458;49.728;9.228;2022-08-19T00:13:42;18.80;99.90
2897;DHT22;1458;49.728;9.228;2022-08-19T00:16:11;18.90;99.90
2897;DHT22;1458;49.728;9.228;2022-08-19T00:18:39;19.00;99.90
2897;DHT22;1458;49.728;9.228;2022-08-19T00:21:06;19.00;99.90
2897;DHT22;1458;49.728;9.228;2022-08-19T00:23:35;19.00;99.90
2897;DHT22;1458;49.728;9.228;2022-08-19T00:26:06;19.00;99.90
2897;DHT22;1458;49.728;9.228;2022-08-19T00:28:34;19.10;99.90
2897;DHT22;1458;49.728;9.228;2022-08-19T00:31:07;19.00;99.90
2897;DHT22;1458;49.728;9.228;2022-08-19T00:33:36;19.00;99.90
2897;DHT22;1458;49.728;9.228;2022-08-19T00:36:08;19.10;99.90
2897;DHT22;1458;49.728;9.228;2022-08-19T00:38:38;19.00;99.90
2897;DHT22;1458;49.728;9.228;2022-08-19T00:41:11;19.10;99.90
2897;DHT22;1458;49.728;9.228;2022-08-19T00:43:40;19.00;99.90
2897;DHT22;1458;49.728;9.228;2022-08-19T00:46:09;19.00;99.90
2897;DHT22;1458;49.728;9.228;2022-08-19T00:48:37;19.00;99.90
2897;DHT22;1458;49.728;9.228;2022-08-19T00:51:08;19.00;99.90
2897;DHT22;1458;49.728;9.228;2022-08-19T00:53:36;19.00;99.90
2897;DHT22;1458;49.728;9.228;2022-08-19T00:56:06;19.00;99.90
2897;DHT22;1458;49.728;9.228;2022-08-19T00:58:35;18.90;99.90
2897;DHT22;1458;49.728;9.228;2022-08-19T01:01:06;18.90;99.90
2897;DHT22;1458;49.728;9.228;2022-08-19T01:03:36;18.90;99.90
2897;DHT22;1458;49.728;9.228;2022-08-19T01:06:07;18.70;99.90
2897;DHT22;1458;49.728;9.228;2022-08-19T01:08:34;18.70;99.90
2897;DHT22;1458;49.728;9.228;2022-08-19T01:11:05;18.60;99.90
2897;DHT22;1458;49.728;9.228;2022-08-19T01:13:37;18.60;99.90
2897;DHT22;1458;49.728;9.228;2022-08-19T01:16:07;18.50;99.90
2897;DHT22;1458;49.728;9.228;2022-08-19T01:18:41;18.50;99.90
2897;DHT22;1458;49.728;9.228;2022-08-19T01:21:17;18.60;99.90
2897;DHT22;1458;49.728;9.228;2022-08-19T01:23:49;18.60;99.90
2897;DHT22;1458;49.728;9.228;2022-08-19T01:26:19;18.70;99.90
2897;DHT22;1458;49.728;9.228;2022-08-19T01:28:52;18.70;99.90
2897;DHT22;1458;49.728;9.228;2022-08-19T01:31:23;18.60;99.90
2897;DHT22;1458;49.728;9.228;2022-08-19T01:33:54;18.60;99.90
2897;DHT22;1458;49.728;9.228;2022-08-19T01:36:26;18.60;99.90
2897;DHT22;1458;49.728;9.228;2022-08-19T01:38:56;18.60;99.90
2897;DHT22;1458;49.728;9.228;2022-08-19T01:41:25;18.70;99.90
2897;DHT22;1458;49.728;9.228;2022-08-19T01:43:53;18.70;99.90
2897;DHT22;1458;49.728;9.228;2022-08-19T01:46:22;18.90;99.90
2897;DHT22;1458;49.728;9.228;2022-08-19T01:48:49;18.80;99.90
2897;DHT22;1458;49.728;9.228;2022-08-19T01:51:17;18.90;99.90
2897;DHT22;1458;49.728;9.228;2022-08-19T01:53:47;18.90;99.90
2897;DHT22;1458;49.728;9.228;2022-08-19T01:56:18;18.80;99.90
2897;DHT22;1458;49.728;9.228;2022-08-19T01:58:50;18.70;99.90
2897;DHT22;1458;49.728;9.228;2022-08-19T02:01:22;18.70;99.90
2897;DHT22;1458;49.728;9.228;2022-08-19T02:03:49;18.80;99.90
2897;DHT22;1458;49.728;9.228;2022-08-19T02:06:20;18.70;99.90
2897;DHT22;1458;49.728;9.228;2022-08-19T02:08:47;18.80;99.90
2897;DHT22;1458;49.728;9.228;2022-08-19T02:11:22;19.00;99.90
2897;DHT22;1458;49.728;9.228;2022-08-19T02:13:53;18.90;99.90
2897;DHT22;1458;49.728;9.228;2022-08-19T02:16:21;18.90;99.90
2897;DHT22;1458;49.728;9.228;2022-08-19T02:18:49;18.90;99.90
2897;DHT22;1458;49.728;9.228;2022-08-19T02:21:18;19.00;99.90
2897;DHT22;1458;49.728;9.228;2022-08-19T02:23:46;19.00;99.90
2897;DHT22;1458;49.728;9.228;2022-08-19T02:26:14;18.90;99.90
2897;DHT22;1458;49.728;9.228;2022-08-19T02:28:43;18.80;99.90
2897;DHT22;1458;49.728;9.228;2022-08-19T02:31:13;18.80;99.90
2897;DHT22;1458;49.728;9.228;2022-08-19T02:33:46;18.80;99.90
2897;DHT22;1458;49.728;9.228;2022-08-19T02:36:16;18.90;99.90
2897;DHT22;1458;49.728;9.228;2022-08-19T02:38:44;18.90;99.90
2897;DHT22;1458;49.728;9.228;2022-08-19T02:41:13;18.90;99.90
2897;DHT22;1458;49.728;9.228;2022-08-19T02:43:44;18.90;99.90
2897;DHT22;1458;49.728;9.228;2022-08-19T02:46:14;18.80;99.90
2897;DHT22;1458;49.728;9.228;2022-08-19T02:48:47;18.80;99.90
2897;DHT22;1458;49.728;9.228;2022-08-19T02:51:18;18.80;99.90
2897;DHT22;1458;49.728;9.228;2022-08-19T02:53:47;18.90;99.90
2897;DHT22;1458;49.728;9.228;2022-08-19T02:56:14;18.90;99.90
2897;DHT22;1458;49.728;9.228;2022-08-19T02:58:44;18.90;99.90
2897;DHT22;1458;49.728;9.228;2022-08-19T03:01:19;19.00;99.90
2897;DHT22;1458;49.728;9.228;2022-08-19T03:03:48;19.10;99.90
2897;DHT22;1458;49.728;9.228;2022-08-19T03:06:17;18.90;99.90
2897;DHT22;1458;49.728;9.228;2022-08-19T03:08:46;19.00;99.90
2897;DHT22;1458;49.728;9.228;2022-08-19T03:11:14;18.90;99.90
2897;DHT22;1458;49.728;9.228;2022-08-19T03:13:44;18.90;99.90
2897;DHT22;1458;49.728;9.228;2022-08-19T03:16:12;18.90;99.90
2897;DHT22;1458;49.728;9.228;2022-08-19T03:18:39;18.90;99.90
2897;DHT22;1458;49.728;9.228;2022-08-19T03:21:07;18.80;99.90
2897;DHT22;1458;49.728;9.228;2022-08-19T03:23:35;18.80;99.90
2897;DHT22;1458;49.728;9.228;2022-08-19T03:26:06;18.90;99.90
2897;DHT22;1458;49.728;9.228;2022-08-19T03:28:33;18.80;99.90
2897;DHT22;1458;49.728;9.228;2022-08-19T03:31:08;18.70;99.90
2897;DHT22;1458;49.728;9.228;2022-08-19T03:33:38;18.70;99.90
2897;DHT22;1458;49.728;9.228;2022-08-19T03:36:08;18.70;99.90
2897;DHT22;1458;49.728;9.228;2022-08-19T03:38:42;18.70;99.90
2897;DHT22;1458;49.728;9.228;2022-08-19T03:41:12;18.70;99.90
2897;DHT22;1458;49.728;9.228;2022-08-19T03:43:44;18.80;99.90
2897;DHT22;1458;49.728;9.228;2022-08-19T03:46:17;18.80;99.90
2897;DHT22;1458;49.728;9.228;2022-08-19T03:48:58;18.70;99.90
2897;DHT22;1458;49.728;9.228;2022-08-19T03:51:28;18.70;99.90
2897;DHT22;1458;49.728;9.228;2022-08-19T03:54:00;18.70;99.90
2897;DHT22;1458;49.728;9.228;2022-08-19T03:56:28;18.90;99.90
2897;DHT22;1458;49.728;9.228;2022-08-19T03:58:57;18.70;99.90
2897;DHT22;1458;49.728;9.228;2022-08-19T04:01:28;18.70;99.90
2897;DHT22;1458;49.728;9.228;2022-08-19T04:03:57;18.90;99.90
2897;DHT22;1458;49.728;9.228;2022-08-19T04:06:27;18.90;99.90
2897;DHT22;1458;49.728;9.228;2022-08-19T04:08:56;19.00;99.90
2897;DHT22;1458;49.728;9.228;2022-08-19T04:11:26;19.00;99.90
2897;DHT22;1458;49.728;9.228;2022-08-19T04:13:57;19.00;99.90
2897;DHT22;1458;49.728;9.228;2022-08-19T04:16:28;19.00;99.90
2897;DHT22;1458;49.728;9.228;2022-08-19T04:18:56;19.00;99.90
2897;DHT22;1458;49.728;9.228;2022-08-19T04:21:27;18.90;99.90
2897;DHT22;1458;49.728;9.228;2022-08-19T04:23:56;18.90;99.90
2897;DHT22;1458;49.728;9.228;2022-08-19T04:26:26;18.80;99.90
2897;DHT22;1458;49.728;9.228;2022-08-19T04:28:58;19.00;99.90
2897;DHT22;1458;49.728;9.228;2022-08-19T04:31:31;19.10;99.90
2897;DHT22;1458;49.728;9.228;2022-08-19T04:34:03;19.00;99.90
2897;DHT22;1458;49.728;9.228;2022-08-19T04:36:33;19.00;99.90
2897;DHT22;1458;49.728;9.228;2022-08-19T04:39:05;19.00;99.90
2897;DHT22;1458;49.728;9.228;2022-08-19T04:41:33;19.00;99.90
2897;DHT22;1458;49.728;9.228;2022-08-19T04:44:18;19.00;99.90
2897;DHT22;1458;49.728;9.228;2022-08-19T04:46:49;18.90;99.90
2897;DHT22;1458;49.728;9.228;2022-08-19T04:49:18;19.00;99.90
2897;DHT22;1458;49.728;9.228;2022-08-19T04:51:48;19.00;99.90
2897;DHT22;1458;49.728;9.228;2022-08-19T04:54:17;19.00;99.90
2897;DHT22;1458;49.728;9.228;2022-08-19T04:56:46;19.00;99.90
2897;DHT22;1458;49.728;9.228;2022-08-19T04:59:15;19.00;99.90
2897;DHT22;1458;49.728;9.228;2022-08-19T05:01:44;19.00;99.90
2897;DHT22;1458;49.728;9.228;2022-08-19T05:04:18;19.10;99.90
2897;DHT22;1458;49.728;9.228;2022-08-19T05:06:49;19.10;99.90
2897;DHT22;1458;49.728;9.228;2022-08-19T05:09:18;19.10;99.90
2897;DHT22;1458;49.728;9.228;2022-08-19T05:11:47;19.10;99.90
2897;DHT22;1458;49.728;9.228;2022-08-19T05:14:18;19.30;99.90
2897;DHT22;1458;49.728;9.228;2022-08-19T05:16:46;19.30;99.90
2897;DHT22;1458;49.728;9.228;2022-08-19T05:19:17;19.40;99.90
2897;DHT22;1458;49.728;9.228;2022-08-19T05:22:02;19.40;99.90
2897;DHT22;1458;49.728;9.228;2022-08-19T05:24:47;19.50;99.90
2897;DHT22;1458;49.728;9.228;2022-08-19T05:27:14;19.60;99.90
2897;DHT22;1458;49.728;9.228;2022-08-19T05:29:42;19.60;99.90
2897;DHT22;1458;49.728;9.228;2022-08-19T05:32:09;19.50;99.90
2897;DHT22;1458;49.728;9.228;2022-08-19T05:34:40;19.60;99.90
2897;DHT22;1458;49.728;9.228;2022-08-19T05:37:08;19.70;99.90
2897;DHT22;1458;49.728;9.228;2022-08-19T05:39:37;19.80;99.90
2897;DHT22;1458;49.728;9.228;2022-08-19T05:42:09;19.80;99.90
2897;DHT22;1458;49.728;9.228;2022-08-19T05:44:40;19.80;99.90
2897;DHT22;1458;49.728;9.228;2022-08-19T05:47:11;19.80;99.90
2897;DHT22;1458;49.728;9.228;2022-08-19T05:49:42;19.90;99.90
2897;DHT22;1458;49.728;9.228;2022-08-19T05:52:11;19.90;99.90
2897;DHT22;1458;49.728;9.228;2022-08-19T05:54:43;19.90;99.90
2897;DHT22;1458;49.728;9.228;2022-08-19T05:57:13;19.90;99.90
2897;DHT22;1458;49.728;9.228;2022-08-19T05:59:41;20.10;99.90
2897;DHT22;1458;49.728;9.228;2022-08-19T06:02:10;20.00;99.90
2897;DHT22;1458;49.728;9.228;2022-08-19T06:04:37;20.10;99.90
2897;DHT22;1458;49.728;9.228;2022-08-19T06:07:08;20.20;99.90
2897;DHT22;1458;49.728;9.228;2022-08-19T06:09:36;20.20;99.90
2897;DHT22;1458;49.728;9.228;2022-08-19T06:12:04;20.30;99.90
2897;DHT22;1458;49.728;9.228;2022-08-19T06:14:34;20.20;99.90
2897;DHT22;1458;49.728;9.228;2022-08-19T06:17:02;20.30;99.90
2897;DHT22;1458;49.728;9.228;2022-08-19T06:19:31;20.40;99.90
2897;DHT22;1458;49.728;9.228;2022-08-19T06:21:59;20.40;99.90
2897;DHT22;1458;49.728;9.228;2022-08-19T06:24:29;20.30;99.90
2897;DHT22;1458;49.728;9.228;2022-08-19T06:26:58;20.30;99.90
2897;DHT22;1458;49.728;9.228;2022-08-19T06:29:27;20.40;99.90
2897;DHT22;1458;49.728;9.228;2022-08-19T06:31:57;20.40;99.90
2897;DHT22;1458;49.728;9.228;2022-08-19T06:34:27;20.40;99.90
2897;DHT22;1458;49.728;9.228;2022-08-19T06:36:56;20.40;99.90
2897;DHT22;1458;49.728;9.228;2022-08-19T06:39:30;20.40;99.90
2897;DHT22;1458;49.728;9.228;2022-08-19T06:42:02;20.40;99.90
2897;DHT22;1458;49.728;9.228;2022-08-19T06:44:36;20.50;99.90
2897;DHT22;1458;49.728;9.228;2022-08-19T06:47:07;20.70;99.90
2897;DHT22;1458;49.728;9.228;2022-08-19T06:49:36;20.70;99.90
2897;DHT22;1458;49.728;9.228;2022-08-19T06:52:05;20.80;99.90
2897;DHT22;1458;49.728;9.228;2022-08-19T06:54:34;20.90;99.90
2897;DHT22;1458;49.728;9.228;2022-08-19T06:57:02;21.00;99.90
2897;DHT22;1458;49.728;9.228;2022-08-19T06:59:31;21.30;99.90
2897;DHT22;1458;49.728;9.228;2022-08-19T07:02:02;21.40;99.60
2897;DHT22;1458;49.728;9.228;2022-08-19T07:04:33;21.50;99.00
2897;DHT22;1458;49.728;9.228;2022-08-19T07:07:05;21.50;97.90
2897;DHT22;1458;49.728;9.228;2022-08-19T07:09:37;21.50;98.40
2897;DHT22;1458;49.728;9.228;2022-08-19T07:12:08;21.60;97.30
2897;DHT22;1458;49.728;9.228;2022-08-19T07:14:37;21.70;97.40
2897;DHT22;1458;49.728;9.228;2022-08-19T07:17:09;21.70;97.60
2897;DHT22;1458;49.728;9.228;2022-08-19T07:19:39;21.70;97.60
2897;DHT22;1458;49.728;9.228;2022-08-19T07:22:08;21.70;97.20
2897;DHT22;1458;49.728;9.228;2022-08-19T07:24:38;21.80;96.30
2897;DHT22;1458;49.728;9.228;2022-08-19T07:27:06;21.70;96.30
2897;DHT22;1458;49.728;9.228;2022-08-19T07:29:36;21.70;96.60
2897;DHT22;1458;49.728;9.228;2022-08-19T07:32:04;21.80;96.20
2897;DHT22;1458;49.728;9.228;2022-08-19T07:34:32;21.80;95.90
2897;DHT22;1458;49.728;9.228;2022-08-19T07:37:03;21.80;96.10
2897;DHT22;1458;49.728;9.228;2022-08-19T07:39:33;21.70;96.30
2897;DHT22;1458;49.728;9.228;2022-08-19T07:42:06;21.70;96.30
2897;DHT22;1458;49.728;9.228;2022-08-19T07:44:36;21.90;96.30
2897;DHT22;1458;49.728;9.228;2022-08-19T07:47:04;22.20;96.30
2897;DHT22;1458;49.728;9.228;2022-08-19T07:49:32;22.30;94.90
2897;DHT22;1458;49.728;9.228;2022-08-19T07:52:03;22.50;94.90
2897;DHT22;1458;49.728;9.228;2022-08-19T07:54:36;22.50;94.10
2897;DHT22;1458;49.728;9.228;2022-08-19T07:57:07;22.50;94.30
2897;DHT22;1458;49.728;9.228;2022-08-19T07:59:35;22.70;93.80
2897;DHT22;1458;49.728;9.228;2022-08-19T08:02:03;22.70;93.00
2897;DHT22;1458;49.728;9.228;2022-08-19T08:04:32;22.70;93.30
2897;DHT22;1458;49.728;9.228;2022-08-19T08:07:17;23.00;93.20
2897;DHT22;1458;49.728;9.228;2022-08-19T08:10:17;23.40;91.90
2897;DHT22;1458;49.728;9.228;2022-08-19T08:12:46;23.60;90.90
2897;DHT22;1458;49.728;9.228;2022-08-19T08:15:15;23.40;91.20
2897;DHT22;1458;49.728;9.228;2022-08-19T08:17:44;23.40;91.70
2897;DHT22;1458;49.728;9.228;2022-08-19T08:20:13;23.70;91.20
2897;DHT22;1458;49.728;9.228;2022-08-19T08:22:44;23.70;90.70
2897;DHT22;1458;49.728;9.228;2022-08-19T08:25:30;23.40;91.20
2897;DHT22;1458;49.728;9.228;2022-08-19T08:27:59;23.50;90.80
2897;DHT22;1458;49.728;9.228;2022-08-19T08:30:28;23.40;91.10
2897;DHT22;1458;49.728;9.228;2022-08-19T08:32:58;23.10;91.10
2897;DHT22;1458;49.728;9.228;2022-08-19T08:35:26;23.10;91.40
2897;DHT22;1458;49.728;9.228;2022-08-19T08:37:54;23.00;91.70
2897;DHT22;1458;49.728;9.228;2022-08-19T08:40:28;23.00;92.00
2897;DHT22;1458;49.728;9.228;2022-08-19T08:43:07;23.10;92.10
2897;DHT22;1458;49.728;9.228;2022-08-19T08:45:42;23.30;91.90
2897;DHT22;1458;49.728;9.228;2022-08-19T08:48:19;23.50;91.10
2897;DHT22;1458;49.728;9.228;2022-08-19T08:50:51;23.70;91.00
2897;DHT22;1458;49.728;9.228;2022-08-19T08:53:20;23.90;90.10
2897;DHT22;1458;49.728;9.228;2022-08-19T08:55:48;24.00;90.40
2897;DHT22;1458;49.728;9.228;2022-08-19T08:58:20;24.30;88.50
2897;DHT22;1458;49.728;9.228;2022-08-19T09:00:53;24.40;86.80
2897;DHT22;1458;49.728;9.228;2022-08-19T09:03:23;24.20;85.90
2897;DHT22;1458;49.728;9.228;2022-08-19T09:05:59;24.00;86.20
2897;DHT22;1458;49.728;9.228;2022-08-19T09:08:39;23.70;86.80
2897;DHT22;1458;49.728;9.228;2022-08-19T09:11:12;23.70;87.80
2897;DHT22;1458;49.728;9.228;2022-08-19T09:13:51;23.80;87.10
2897;DHT22;1458;49.728;9.228;2022-08-19T09:16:30;24.10;87.20
2897;DHT22;1458;49.728;9.228;2022-08-19T09:19:02;24.40;85.10
2897;DHT22;1458;49.728;9.228;2022-08-19T09:21:31;24.30;83.40
2897;DHT22;1458;49.728;9.228;2022-08-19T09:23:59;24.30;84.10
2897;DHT22;1458;49.728;9.228;2022-08-19T09:26:27;24.40;82.50
2897;DHT22;1458;49.728;9.228;2022-08-19T09:28:57;24.70;81.10
2897;DHT22;1458;49.728;9.228;2022-08-19T09:31:27;24.80;79.70
2897;DHT22;1458;49.728;9.228;2022-08-19T09:33:56;24.80;79.70
2897;DHT22;1458;49.728;9.228;2022-08-19T09:36:25;25.10;77.20
2897;DHT22;1458;49.728;9.228;2022-08-19T09:38:55;25.40;76.80
2897;DHT22;1458;49.728;9.228;2022-08-19T09:41:24;25.60;74.70
2897;DHT22;1458;49.728;9.228;2022-08-19T09:43:55;25.70;73.40
2897;DHT22;1458;49.728;9.228;2022-08-19T09:46:27;25.40;73.20
2897;DHT22;1458;49.728;9.228;2022-08-19T09:48:58;25.80;72.20
2897;DHT22;1458;49.728;9.228;2022-08-19T09:51:27;25.70;71.20
2897;DHT22;1458;49.728;9.228;2022-08-19T09:53:59;25.60;72.10
2897;DHT22;1458;49.728;9.228;2022-08-19T09:56:29;25.20;71.80
2897;DHT22;1458;49.728;9.228;2022-08-19T09:58:59;25.20;71.50
2897;DHT22;1458;49.728;9.228;2022-08-19T10:01:29;25.40;71.20
2897;DHT22;1458;49.728;9.228;2022-08-19T10:03:58;25.40;71.40
2897;DHT22;1458;49.728;9.228;2022-08-19T10:06:29;25.50;70.20
2897;DHT22;1458;49.728;9.228;2022-08-19T10:08:58;25.70;70.80
2897;DHT22;1458;49.728;9.228;2022-08-19T10:11:26;26.00;69.00
2897;DHT22;1458;49.728;9.228;2022-08-19T10:13:54;25.90;66.80
2897;DHT22;1458;49.728;9.228;2022-08-19T10:16:24;26.20;65.90
2897;DHT22;1458;49.728;9.228;2022-08-19T10:18:53;26.30;66.30
2897;DHT22;1458;49.728;9.228;2022-08-19T10:21:23;26.30;64.90
2897;DHT22;1458;49.728;9.228;2022-08-19T10:23:54;25.90;66.00
2897;DHT22;1458;49.728;9.228;2022-08-19T10:26:25;26.10;67.30
2897;DHT22;1458;49.728;9.228;2022-08-19T10:28:54;26.40;65.60
2897;DHT22;1458;49.728;9.228;2022-08-19T10:31:28;26.50;65.60
2897;DHT22;1458;49.728;9.228;2022-08-19T10:33:57;26.60;65.40
2897;DHT22;1458;49.728;9.228;2022-08-19T10:36:26;26.40;63.30
2897;DHT22;1458;49.728;9.228;2022-08-19T10:38:57;26.20;64.20
2897;DHT22;1458;49.728;9.228;2022-08-19T10:41:28;26.00;65.30
2897;DHT22;1458;49.728;9.228;2022-08-19T10:44:03;25.80;65.20
2897;DHT22;1458;49.728;9.228;2022-08-19T10:46:36;25.40;67.00
2897;DHT22;1458;49.728;9.228;2022-08-19T10:49:09;25.20;68.10
2897;DHT22;1458;49.728;9.228;2022-08-19T10:51:38;25.40;65.30
2897;DHT22;1458;49.728;9.228;2022-08-19T10:54:26;25.60;64.20
2897;DHT22;1458;49.728;9.228;2022-08-19T10:57:14;25.60;64.50
2897;DHT22;1458;49.728;9.228;2022-08-19T10:59:41;25.70;65.10
2897;DHT22;1458;49.728;9.228;2022-08-19T11:02:10;26.00;64.60
2897;DHT22;1458;49.728;9.228;2022-08-19T11:04:39;26.30;62.10
2897;DHT22;1458;49.728;9.228;2022-08-19T11:07:07;26.50;61.90
2897;DHT22;1458;49.728;9.228;2022-08-19T11:09:38;26.30;62.20
2897;DHT22;1458;49.728;9.228;2022-08-19T11:12:08;26.30;61.10
2897;DHT22;1458;49.728;9.228;2022-08-19T11:14:38;26.10;61.70
2897;DHT22;1458;49.728;9.228;2022-08-19T11:17:06;26.30;61.50
2897;DHT22;1458;49.728;9.228;2022-08-19T11:19:35;26.70;59.20
2897;DHT22;1458;49.728;9.228;2022-08-19T11:22:03;26.90;56.90
2897;DHT22;1458;49.728;9.228;2022-08-19T11:24:31;26.80;57.20
2897;DHT22;1458;49.728;9.228;2022-08-19T11:27:05;26.90;57.20
2897;DHT22;1458;49.728;9.228;2022-08-19T11:29:35;27.00;55.70
2897;DHT22;1458;49.728;9.228;2022-08-19T11:32:06;26.80;55.70
2897;DHT22;1458;49.728;9.228;2022-08-19T11:34:37;26.50;57.30
2897;DHT22;1458;49.728;9.228;2022-08-19T11:37:05;26.90;56.20
2897;DHT22;1458;49.728;9.228;2022-08-19T11:39:37;26.50;56.20
2897;DHT22;1458;49.728;9.228;2022-08-19T11:42:06;26.80;56.60
2897;DHT22;1458;49.728;9.228;2022-08-19T11:44:48;26.90;55.50
2897;DHT22;1458;49.728;9.228;2022-08-19T11:47:15;26.80;54.80
2897;DHT22;1458;49.728;9.228;2022-08-19T11:49:45;26.50;56.70
2897;DHT22;1458;49.728;9.228;2022-08-19T11:52:13;26.30;56.30
2897;DHT22;1458;49.728;9.228;2022-08-19T11:54:41;26.40;56.40
2897;DHT22;1458;49.728;9.228;2022-08-19T11:57:08;26.90;54.70
2897;DHT22;1458;49.728;9.228;2022-08-19T11:59:36;27.10;54.40
2897;DHT22;1458;49.728;9.228;2022-08-19T12:02:03;27.20;54.30
2897;DHT22;1458;49.728;9.228;2022-08-19T12:04:31;27.20;53.10
2897;DHT22;1458;49.728;9.228;2022-08-19T12:07:00;27.20;53.10
2897;DHT22;1458;49.728;9.228;2022-08-19T12:09:29;27.10;53.60
2897;DHT22;1458;49.728;9.228;2022-08-19T12:12:00;26.90;52.90
2897;DHT22;1458;49.728;9.228;2022-08-19T12:14:27;26.90;52.90
2897;DHT22;1458;49.728;9.228;2022-08-19T12:16:57;27.10;53.10
2897;DHT22;1458;49.728;9.228;2022-08-19T12:19:26;27.50;51.80
2897;DHT22;1458;49.728;9.228;2022-08-19T12:22:00;27.40;50.90
2897;DHT22;1458;49.728;9.228;2022-08-19T12:24:31;27.40;50.70
2897;DHT22;1458;49.728;9.228;2022-08-19T12:26:59;27.50;51.00
2897;DHT22;1458;49.728;9.228;2022-08-19T12:29:29;27.50;50.30
2897;DHT22;1458;49.728;9.228;2022-08-19T12:31:57;27.50;51.00
2897;DHT22;1458;49.728;9.228;2022-08-19T12:34:30;27.50;51.50
2897;DHT22;1458;49.728;9.228;2022-08-19T12:37:02;28.20;49.70
2897;DHT22;1458;49.728;9.228;2022-08-19T12:39:33;27.80;48.10
2897;DHT22;1458;49.728;9.228;2022-08-19T12:42:03;27.60;49.00
2897;DHT22;1458;49.728;9.228;2022-08-19T12:44:31;27.40;49.90
2897;DHT22;1458;49.728;9.228;2022-08-19T12:46:59;27.40;50.20
2897;DHT22;1458;49.728;9.228;2022-08-19T12:49:30;27.20;50.40
2897;DHT22;1458;49.728;9.228;2022-08-19T12:52:00;26.80;50.10
2897;DHT22;1458;49.728;9.228;2022-08-19T12:54:29;26.80;51.50
2897;DHT22;1458;49.728;9.228;2022-08-19T12:56:57;26.50;52.50
2897;DHT22;1458;49.728;9.228;2022-08-19T12:59:25;26.50;53.20
2897;DHT22;1458;49.728;9.228;2022-08-19T13:01:53;26.50;52.50
2897;DHT22;1458;49.728;9.228;2022-08-19T13:04:21;26.50;53.90
2897;DHT22;1458;49.728;9.228;2022-08-19T13:06:49;26.40;52.40
2897;DHT22;1458;49.728;9.228;2022-08-19T13:09:18;26.40;53.90
2897;DHT22;1458;49.728;9.228;2022-08-19T13:11:45;26.40;53.10
2897;DHT22;1458;49.728;9.228;2022-08-19T13:14:13;26.60;54.20
2897;DHT22;1458;49.728;9.228;2022-08-19T13:16:41;26.80;52.70
2897;DHT22;1458;49.728;9.228;2022-08-19T13:19:09;26.80;52.80
2897;DHT22;1458;49.728;9.228;2022-08-19T13:21:37;26.70;52.30
2897;DHT22;1458;49.728;9.228;2022-08-19T13:24:05;26.60;52.60
2897;DHT22;1458;49.728;9.228;2022-08-19T13:26:37;26.70;52.80
2897;DHT22;1458;49.728;9.228;2022-08-19T13:29:04;26.50;52.50
2897;DHT22;1458;49.728;9.228;2022-08-19T13:31:49;26.40;53.00
2897;DHT22;1458;49.728;9.228;2022-08-19T13:34:36;26.30;54.40
2897;DHT22;1458;49.728;9.228;2022-08-19T13:37:05;26.20;54.20
2897;DHT22;1458;49.728;9.228;2022-08-19T13:39:34;26.30;54.80
2897;DHT22;1458;49.728;9.228;2022-08-19T13:42:04;26.30;55.30
2897;DHT22;1458;49.728;9.228;2022-08-19T13:44:33;26.50;54.00
2897;DHT22;1458;49.728;9.228;2022-08-19T13:47:01;27.00;53.00
2897;DHT22;1458;49.728;9.228;2022-08-19T13:49:33;27.30;52.00
2897;DHT22;1458;49.728;9.228;2022-08-19T13:52:02;27.50;49.60
2897;DHT22;1458;49.728;9.228;2022-08-19T13:54:31;28.10;47.60
2897;DHT22;1458;49.728;9.228;2022-08-19T13:56:58;27.90;45.40
2897;DHT22;1458;49.728;9.228;2022-08-19T13:59:27;27.80;43.60
2897;DHT22;1458;49.728;9.228;2022-08-19T14:01:58;28.00;44.90
2897;DHT22;1458;49.728;9.228;2022-08-19T14:04:26;28.10;44.50
2897;DHT22;1458;49.728;9.228;2022-08-19T14:06:53;28.30;43.60
2897;DHT22;1458;49.728;9.228;2022-08-19T14:09:21;28.00;42.40
2897;DHT22;1458;49.728;9.228;2022-08-19T14:11:49;28.00;41.90
2897;DHT22;1458;49.728;9.228;2022-08-19T14:14:17;28.10;42.60
2897;DHT22;1458;49.728;9.228;2022-08-19T14:16:46;28.40;41.70
2897;DHT22;1458;49.728;9.228;2022-08-19T14:19:14;28.50;40.70
2897;DHT22;1458;49.728;9.228;2022-08-19T14:21:41;28.60;40.50
2897;DHT22;1458;49.728;9.228;2022-08-19T14:24:09;28.70;39.90
2897;DHT22;1458;49.728;9.228;2022-08-19T14:26:37;29.00;39.20
2897;DHT22;1458;49.728;9.228;2022-08-19T14:29:04;28.90;37.10
2897;DHT22;1458;49.728;9.228;2022-08-19T14:31:32;28.80;38.20
2897;DHT22;1458;49.728;9.228;2022-08-19T14:34:02;28.70;38.40
2897;DHT22;1458;49.728;9.228;2022-08-19T14:36:29;28.60;39.80
2897;DHT22;1458;49.728;9.228;2022-08-19T14:39:00;28.70;38.80
2897;DHT22;1458;49.728;9.228;2022-08-19T14:41:27;28.70;39.90
2897;DHT22;1458;49.728;9.228;2022-08-19T14:43:57;28.60;37.90
2897;DHT22;1458;49.728;9.228;2022-08-19T14:46:28;28.40;39.30
2897;DHT22;1458;49.728;9.228;2022-08-19T14:48:56;28.40;38.00
2897;DHT22;1458;49.728;9.228;2022-08-19T14:51:26;28.40;38.00
2897;DHT22;1458;49.728;9.228;2022-08-19T14:53:54;28.30;36.20
2897;DHT22;1458;49.728;9.228;2022-08-19T14:56:23;28.40;37.90
2897;DHT22;1458;49.728;9.228;2022-08-19T14:58:56;28.50;38.10
2897;DHT22;1458;49.728;9.228;2022-08-19T15:01:27;28.60;39.10
2897;DHT22;1458;49.728;9.228;2022-08-19T15:03:54;28.80;37.50
2897;DHT22;1458;49.728;9.228;2022-08-19T15:06:26;28.70;37.00
2897;DHT22;1458;49.728;9.228;2022-08-19T15:08:55;28.40;37.30
2897;DHT22;1458;49.728;9.228;2022-08-19T15:11:24;28.10;38.50
2897;DHT22;1458;49.728;9.228;2022-08-19T15:13:53;27.70;39.30
2897;DHT22;1458;49.728;9.228;2022-08-19T15:16:22;27.40;41.10
2897;DHT22;1458;49.728;9.228;2022-08-19T15:18:51;27.20;41.10
2897;DHT22;1458;49.728;9.228;2022-08-19T15:21:30;27.00;42.00
2897;DHT22;1458;49.728;9.228;2022-08-19T15:23:58;26.80;43.70
2897;DHT22;1458;49.728;9.228;2022-08-19T15:26:33;26.60;43.30
2897;DHT22;1458;49.728;9.228;2022-08-19T15:29:01;26.50;43.60
2897;DHT22;1458;49.728;9.228;2022-08-19T15:31:30;26.50;42.50
2897;DHT22;1458;49.728;9.228;2022-08-19T15:34:03;26.50;43.00
2897;DHT22;1458;49.728;9.228;2022-08-19T15:36:32;26.30;44.10
2897;DHT22;1458;49.728;9.228;2022-08-19T15:39:01;26.20;47.80
2897;DHT22;1458;49.728;9.228;2022-08-19T15:41:30;26.10;49.40
2897;DHT22;1458;49.728;9.228;2022-08-19T15:43:59;26.00;50.10
2897;DHT22;1458;49.728;9.228;2022-08-19T15:46:32;25.80;51.00
2897;DHT22;1458;49.728;9.228;2022-08-19T15:49:01;25.80;51.90
2897;DHT22;1458;49.728;9.228;2022-08-19T15:51:32;25.60;54.30
2897;DHT22;1458;49.728;9.228;2022-08-19T15:54:03;25.60;55.50
2897;DHT22;1458;49.728;9.228;2022-08-19T15:56:31;25.50;57.00
2897;DHT22;1458;49.728;9.228;2022-08-19T15:59:35;25.40;58.50
2897;DHT22;1458;49.728;9.228;2022-08-19T16:02:25;25.30;60.20
2897;DHT22;1458;49.728;9.228;2022-08-19T16:05:13;25.30;59.50
2897;DHT22;1458;49.728;9.228;2022-08-19T16:08:01;25.40;59.00
2897;DHT22;1458;49.728;9.228;2022-08-19T16:10:30;25.40;59.80
2897;DHT22;1458;49.728;9.228;2022-08-19T16:12:58;25.40;59.70
2897;DHT22;1458;49.728;9.228;2022-08-19T16:15:33;25.40;60.80
2897;DHT22;1458;49.728;9.228;2022-08-19T16:18:06;25.30;62.30
2897;DHT22;1458;49.728;9.228;2022-08-19T16:20:34;25.30;62.90
2897;DHT22;1458;49.728;9.228;2022-08-19T16:23:03;25.20;63.30